Time;durP1;ratioP1;P1;durP2;ratioP2;P2;SDS_P1;SDS_P2;PMS_P1;PMS_P2;Temp;Humidity;BMP_temperature;BMP_pressure;BME280_temperature;BME280_humidity;BME280_pressure;Samples;Min_cycle;Max_cycle;Signal;HPM_P1;HPM_P2
2024/02/27 00:02:31;;;;;;;;;;;;;;;10.87;77.93;98333.55;68395;1279;1015414;-70
2024/02/27 00:05:34;;;;;;;;;;;;;;;10.86;76.16;98329.77;68396;1279;1015556;-70
2024/02/27 00:08:37;;;;;;;;;;;;;;;10.63;74.99;98334.13;68403;1279;1016109;-70
2024/02/27 00:11:39;;;;;;;;;;;;;;;10.52;74.97;98340.61;68411;1279;1015428;-70
2024/02/27 00:14:42;;;;;;;;;;;;;;;10.39;75.31;98348.73;68419;1279;1015341;-70
2024/02/27 00:17:44;;;;;;;;;;;;;;;10.30;75.85;98355.23;68420;1279;1015815;-70
2024/02/27 00:20:47;;;;;;;;;;;;;;;10.29;76.08;98358.08;68413;1279;1015330;-70
2024/02/27 00:23:49;;;;;;;;;;;;;;;10.38;77.24;98355.23;68421;1279;1015428;-70
2024/02/27 00:26:52;;;;;;;;;;;;;;;10.52;77.91;98351.64;68408;1279;1015696;-69
2024/02/27 00:29:54;;;;;;;;;;;;;;;10.64;78.02;98344.02;68391;1279;1015971;-70
2024/02/27 00:32:57;;;;;;;;;;;;;;;10.80;77.57;98343.11;68410;1279;1015675;-70
2024/02/27 00:36:00;;;;;;;;;;;;;;;10.83;76.92;98347.30;68402;1279;1015775;-70
2024/02/27 00:39:02;;;;;;;;;;;;;;;10.86;76.85;98349.84;68400;1279;1015031;-70
2024/02/27 00:42:05;;;;;;;;;;;;;;;10.90;77.31;98351.84;68385;1279;1016196;-69
2024/02/27 00:45:07;;;;;;;;;;;;;;;10.97;75.92;98353.28;68387;1279;1015885;-70
2024/02/27 00:48:10;;;;;;;;;;;;;;;10.84;73.83;98351.76;68389;1279;1014902;-70
2024/02/27 00:51:12;;;;;;;;;;;;;;;10.70;73.63;98353.96;68399;1279;1015792;-70
2024/02/27 00:54:15;;;;;;;;;;;;;;;10.59;74.63;98351.56;68399;1279;1015686;-70
2024/02/27 00:57:17;;;;;;;;;;;;;;;10.60;75.78;98356.19;68414;1279;1016190;-69
2024/02/27 01:00:20;;;;;;;;;;;;;;;10.65;76.18;98352.20;68412;1279;1015405;-70
2024/02/27 01:03:22;;;;;;;;;;;;;;;10.72;78.19;98356.98;68395;1279;1016040;-70
2024/02/27 01:06:25;;;;;;;;;;;;;;;10.71;77.11;98356.84;68411;1279;1015504;-70
2024/02/27 01:09:28;;;;;;;;;;;;;;;10.60;75.60;98359.66;68397;1279;1016610;-70
2024/02/27 01:12:30;;;;;;;;;;;;;;;10.49;73.90;98353.07;68406;1280;1015130;-70
2024/02/27 01:15:33;;;;;;;;;;;;;;;10.25;75.23;98352.58;68393;1279;1015990;-69
2024/02/27 01:18:35;;;;;;;;;;;;;;;10.12;76.47;98355.73;68406;1279;1016006;-71
2024/02/27 01:21:38;;;;;;;;;;;;;;;10.09;78.67;98355.21;68407;1279;1016141;-70
2024/02/27 01:24:41;;;;;;;;;;;;;;;10.10;78.54;98355.17;68406;1279;1015979;-70
2024/02/27 01:27:43;;;;;;;;;;;;;;;10.09;77.61;98359.95;68385;1279;1015648;-70
2024/02/27 01:30:46;;;;;;;;;;;;;;;10.20;76.44;98362.89;68407;1279;1016016;-68
2024/02/27 01:33:48;;;;;;;;;;;;;;;10.18;78.88;98361.80;68400;1279;1015700;-66
2024/02/27 01:36:51;;;;;;;;;;;;;;;10.25;80.62;98357.46;68402;1279;1015937;-70
2024/02/27 01:39:54;;;;;;;;;;;;;;;10.31;80.24;98350.45;68391;1279;1016081;-69
2024/02/27 01:42:56;;;;;;;;;;;;;;;10.34;79.60;98349.33;68397;1279;1015078;-70
2024/02/27 01:45:59;;;;;;;;;;;;;;;10.43;78.67;98353.88;68394;1279;1015911;-70
2024/02/27 01:49:01;;;;;;;;;;;;;;;10.47;78.08;98347.62;68401;1279;1016073;-70
2024/02/27 01:52:04;;;;;;;;;;;;;;;10.49;78.83;98347.00;68390;1279;1015457;-70
2024/02/27 01:55:06;;;;;;;;;;;;;;;10.54;78.50;98345.95;68419;1279;1015334;-70
2024/02/27 01:58:09;;;;;;;;;;;;;;;10.54;74.73;98345.56;68395;1279;1015835;-67
2024/02/27 02:01:13;;;;;;;;;;;;;;;10.27;74.91;98346.84;68404;1279;1015527;-70
2024/02/27 02:04:16;;;;;;;;;;;;;;;10.16;78.44;98354.45;68405;1279;1016236;-70
2024/02/27 02:07:18;;;;;;;;;;;;;;;10.05;81.37;98362.29;68414;1279;1015124;-70
2024/02/27 02:10:21;;;;;;;;;;;;;;;10.04;81.87;98372.98;68398;1279;1015856;-70
2024/02/27 02:13:24;;;;;;;;;;;;;;;10.02;81.54;98371.77;68408;1279;1015327;-70
2024/02/27 02:16:26;;;;;;;;;;;;;;;10.08;81.37;98379.02;68393;1279;1015639;-70
2024/02/27 02:19:29;;;;;;;;;;;;;;;10.20;82.47;98373.90;68401;1279;1015505;-70
2024/02/27 02:22:31;;;;;;;;;;;;;;;10.30;81.76;98374.98;68396;1279;1016260;-70
2024/02/27 02:25:35;;;;;;;;;;;;;;;10.46;82.21;98375.64;68398;1279;1015494;-70
2024/02/27 02:28:37;;;;;;;;;;;;;;;10.50;80.21;98380.83;68407;1279;1015951;-70
2024/02/27 02:31:40;;;;;;;;;;;;;;;10.25;77.79;98384.75;68418;1279;1015905;-71
2024/02/27 02:34:42;;;;;;;;;;;;;;;10.02;77.26;98380.96;68402;1279;1015835;-70
2024/02/27 02:37:47;;;;;;;;;;;;;;;9.99;78.58;98382.23;68415;1279;1016122;-70
2024/02/27 02:40:50;;;;;;;;;;;;;;;10.10;77.66;98381.23;68385;1279;1015951;-70
2024/02/27 02:43:52;;;;;;;;;;;;;;;10.16;77.37;98380.77;68387;1279;1015105;-70
2024/02/27 02:46:55;;;;;;;;;;;;;;;10.22;78.71;98380.86;68405;1279;1015055;-70
2024/02/27 02:49:57;;;;;;;;;;;;;;;10.35;79.64;98385.67;68411;1279;1015706;-68
2024/02/27 02:53:00;;;;;;;;;;;;;;;10.44;80.32;98385.23;68383;1279;1016234;-69
2024/02/27 02:56:03;;;;;;;;;;;;;;;10.53;79.21;98388.16;68411;1279;1015781;-70
2024/02/27 02:59:06;;;;;;;;;;;;;;;10.37;75.33;98390.44;68405;1279;1016028;-70
2024/02/27 03:02:08;;;;;;;;;;;;;;;10.22;76.61;98391.27;68391;1279;1016011;-70
2024/02/27 03:05:12;;;;;;;;;;;;;;;10.10;78.56;98393.94;68378;1279;1014504;-70
2024/02/27 03:08:14;;;;;;;;;;;;;;;9.98;79.34;98401.20;68394;1279;1015756;-71
2024/02/27 03:11:18;;;;;;;;;;;;;;;10.11;79.72;98409.58;68392;1279;1016248;-70
2024/02/27 03:14:20;;;;;;;;;;;;;;;10.22;78.53;98408.38;68397;1279;1015510;-70
2024/02/27 03:17:23;;;;;;;;;;;;;;;10.22;78.31;98413.59;68389;1279;1015689;-69
2024/02/27 03:20:25;;;;;;;;;;;;;;;10.20;75.67;98416.49;68413;1279;1015430;-70
2024/02/27 03:23:28;;;;;;;;;;;;;;;10.21;75.59;98415.58;68423;1279;1015448;-70
2024/02/27 03:26:30;;;;;;;;;;;;;;;10.22;76.56;98427.04;68399;1279;1015499;-70
2024/02/27 03:29:33;;;;;;;;;;;;;;;10.27;77.63;98428.14;68397;1279;1015694;-64
2024/02/27 03:32:35;;;;;;;;;;;;;;;10.24;76.58;98425.34;68409;1279;1015305;-70
2024/02/27 03:35:39;;;;;;;;;;;;;;;10.28;77.63;98435.22;68392;1279;1016102;-70
2024/02/27 03:38:42;;;;;;;;;;;;;;;10.23;76.00;98435.35;68402;1279;1015808;-70
2024/02/27 03:41:45;;;;;;;;;;;;;;;10.18;77.19;98445.10;68409;1279;1015879;-70
2024/02/27 03:44:48;;;;;;;;;;;;;;;10.09;76.25;98450.41;68393;1279;1015350;-70
2024/02/27 03:47:50;;;;;;;;;;;;;;;9.86;74.93;98459.20;68393;1279;1014532;-70
2024/02/27 03:50:53;;;;;;;;;;;;;;;9.79;75.14;98452.33;68406;1279;1016038;-71
2024/02/27 03:53:55;;;;;;;;;;;;;;;9.85;75.69;98447.61;68406;1279;1015524;-70
2024/02/27 03:56:58;;;;;;;;;;;;;;;9.91;76.16;98441.44;68398;1279;1015409;-70
2024/02/27 04:00:02;;;;;;;;;;;;;;;10.01;76.20;98444.97;68411;1279;1015677;-70
2024/02/27 04:03:05;;;;;;;;;;;;;;;10.13;77.09;98451.59;68409;1279;1015560;-70
2024/02/27 04:06:07;;;;;;;;;;;;;;;10.17;75.39;98454.60;68392;1279;1015976;-70
2024/02/27 04:09:10;;;;;;;;;;;;;;;10.15;74.61;98458.92;68398;1279;1016030;-70
2024/02/27 04:12:12;;;;;;;;;;;;;;;10.04;74.57;98467.02;68405;1279;1015887;-70
2024/02/27 04:15:15;;;;;;;;;;;;;;;10.00;75.68;98462.53;68411;1279;1016138;-70
2024/02/27 04:18:18;;;;;;;;;;;;;;;9.92;76.74;98457.28;68399;1279;1016105;-70
2024/02/27 04:21:20;;;;;;;;;;;;;;;10.05;77.31;98459.59;68409;1279;1016091;-70
2024/02/27 04:24:23;;;;;;;;;;;;;;;10.18;78.83;98461.00;68389;1279;1015089;-69
2024/02/27 04:27:25;;;;;;;;;;;;;;;10.23;80.43;98450.92;68399;1279;1015445;-70
2024/02/27 04:30:28;;;;;;;;;;;;;;;10.25;79.71;98444.86;68392;1279;1016222;-70
2024/02/27 04:33:30;;;;;;;;;;;;;;;10.34;80.88;98449.30;68400;1279;1015810;-63
2024/02/27 04:36:33;;;;;;;;;;;;;;;10.41;80.73;98445.38;68406;1279;1016208;-70
2024/02/27 04:39:35;;;;;;;;;;;;;;;10.49;80.23;98449.23;68427;1279;1016134;-68
2024/02/27 04:42:38;;;;;;;;;;;;;;;10.43;78.17;98442.45;68402;1279;1016322;-70
2024/02/27 04:45:40;;;;;;;;;;;;;;;10.23;77.48;98434.98;68413;1279;1014506;-70
2024/02/27 04:48:43;;;;;;;;;;;;;;;10.08;79.03;98439.67;68418;1279;1015936;-70
2024/02/27 04:51:45;;;;;;;;;;;;;;;10.17;80.47;98439.10;68414;1279;1014363;-69
2024/02/27 04:54:48;;;;;;;;;;;;;;;10.36;80.86;98450.05;68404;1279;1015867;-70
2024/02/27 04:57:50;;;;;;;;;;;;;;;10.60;81.63;98451.46;68390;1279;1016258;-70
2024/02/27 05:00:53;;;;;;;;;;;;;;;10.82;81.58;98448.82;68418;1279;1015358;-70
2024/02/27 05:03:56;;;;;;;;;;;;;;;11.01;81.61;98455.49;68392;1279;1015995;-69
2024/02/27 05:06:58;;;;;;;;;;;;;;;11.14;81.40;98461.30;68391;1279;1015413;-69
2024/02/27 05:10:01;;;;;;;;;;;;;;;11.24;81.73;98456.38;68401;1279;1016152;-70
2024/02/27 05:13:03;;;;;;;;;;;;;;;11.24;81.86;98457.80;68412;1279;1016132;-70
2024/02/27 05:16:06;;;;;;;;;;;;;;;11.26;82.56;98450.30;68404;1279;1015847;-69
2024/02/27 05:19:09;;;;;;;;;;;;;;;11.28;82.64;98454.02;68422;1279;1015674;-69
2024/02/27 05:22:11;;;;;;;;;;;;;;;11.33;82.71;98454.02;68413;1279;1015358;-69
2024/02/27 05:25:14;;;;;;;;;;;;;;;11.54;82.64;98456.46;68424;1279;1015788;-70
2024/02/27 05:28:16;;;;;;;;;;;;;;;11.62;81.96;98455.33;68394;1279;1015858;-69
2024/02/27 05:31:19;;;;;;;;;;;;;;;11.76;81.24;98472.55;68414;1279;1015673;-70
2024/02/27 05:34:21;;;;;;;;;;;;;;;11.70;81.02;98476.67;68402;1279;1016050;-69
2024/02/27 05:37:24;;;;;;;;;;;;;;;11.68;81.53;98482.42;68404;1279;1016301;-70
2024/02/27 05:40:27;;;;;;;;;;;;;;;11.72;82.19;98482.31;68404;1279;1015612;-70
2024/02/27 05:43:29;;;;;;;;;;;;;;;11.77;81.91;98480.02;68419;1279;1015807;-70
2024/02/27 05:46:32;;;;;;;;;;;;;;;11.75;82.07;98482.05;68418;1279;1015371;-70
2024/02/27 05:49:34;;;;;;;;;;;;;;;11.82;82.31;98485.08;68418;1279;1015313;-69
2024/02/27 05:52:37;;;;;;;;;;;;;;;11.84;82.14;98489.55;68423;1279;1015448;-70
2024/02/27 05:55:40;;;;;;;;;;;;;;;11.92;82.67;98493.86;68436;1279;1015962;-69
2024/02/27 05:58:43;;;;;;;;;;;;;;;11.96;82.36;98496.56;68428;1279;1015009;-70
2024/02/27 06:01:46;;;;;;;;;;;;;;;11.90;83.19;98502.38;68406;1279;1014991;-70
2024/02/27 06:04:48;;;;;;;;;;;;;;;11.94;83.23;98505.08;68412;1279;1016003;-69
2024/02/27 06:07:51;;;;;;;;;;;;;;;12.02;82.67;98503.83;68427;1279;1015467;-70
2024/02/27 06:10:54;;;;;;;;;;;;;;;12.17;82.77;98506.96;68395;1279;1016104;-70
2024/02/27 06:13:56;;;;;;;;;;;;;;;12.32;82.42;98504.52;68419;1279;1015688;-70
2024/02/27 06:16:59;;;;;;;;;;;;;;;12.51;81.60;98506.41;68414;1279;1015732;-70
2024/02/27 06:20:09;;;;;;;;;;;;;;;12.58;81.33;98509.46;68399;1279;1015162;-69
2024/02/27 06:23:13;;;;;;;;;;;;;;;12.46;81.76;98507.66;68405;1279;1016062;-70
2024/02/27 06:26:15;;;;;;;;;;;;;;;12.37;82.64;98522.91;68415;1279;1015756;-70
2024/02/27 06:29:18;;;;;;;;;;;;;;;12.29;83.74;98516.27;68392;1279;1016010;-70
2024/02/27 06:32:20;;;;;;;;;;;;;;;12.23;84.29;98521.23;68437;1279;1015287;-70
2024/02/27 06:35:24;;;;;;;;;;;;;;;12.38;84.47;98528.80;68403;1279;1016101;-70
2024/02/27 06:38:26;;;;;;;;;;;;;;;12.42;84.44;98529.02;68410;1279;1015981;-69
2024/02/27 06:41:30;;;;;;;;;;;;;;;12.55;84.22;98531.38;68427;1279;1015621;-70
2024/02/27 06:44:32;;;;;;;;;;;;;;;12.72;83.12;98529.79;68413;1279;1015317;-70
2024/02/27 06:47:35;;;;;;;;;;;;;;;12.77;83.78;98531.02;68431;1279;1015954;-70
2024/02/27 06:50:38;;;;;;;;;;;;;;;12.91;83.04;98534.92;68427;1279;1015666;-70
2024/02/27 06:53:41;;;;;;;;;;;;;;;12.98;82.61;98536.83;68422;1279;1015529;-70
2024/02/27 06:56:43;;;;;;;;;;;;;;;12.94;82.64;98542.34;68411;1279;1015545;-66
2024/02/27 06:59:46;;;;;;;;;;;;;;;12.93;82.43;98544.78;68411;1279;1016349;-70
2024/02/27 07:02:48;;;;;;;;;;;;;;;12.87;82.69;98541.83;68418;1279;1016102;-70
2024/02/27 07:05:53;;;;;;;;;;;;;;;12.91;83.08;98544.17;68432;1279;1015645;-70
2024/02/27 07:08:58;;;;;;;;;;;;;;;12.89;83.83;98549.57;68399;1279;1015672;-70
2024/02/27 07:12:00;;;;;;;;;;;;;;;13.04;83.70;98550.05;68414;1279;1015695;-69
2024/02/27 07:15:03;;;;;;;;;;;;;;;13.10;83.24;98553.95;68406;1279;1015457;-69
2024/02/27 07:18:05;;;;;;;;;;;;;;;13.15;82.76;98551.14;68411;1279;1015906;-69
2024/02/27 07:21:08;;;;;;;;;;;;;;;13.13;83.10;98551.33;68418;1279;1016134;-69
2024/02/27 07:24:10;;;;;;;;;;;;;;;13.23;82.38;98547.52;68428;1279;1015850;-70
2024/02/27 07:27:13;;;;;;;;;;;;;;;13.17;82.71;98546.74;68435;1279;1015953;-70
2024/02/27 07:30:16;;;;;;;;;;;;;;;13.19;83.05;98545.59;68416;1279;1015803;-70
2024/02/27 07:33:18;;;;;;;;;;;;;;;13.24;82.99;98552.42;68410;1279;1016253;-70
2024/02/27 07:36:21;;;;;;;;;;;;;;;13.30;82.26;98558.08;68428;1279;1015523;-70
2024/02/27 07:39:24;;;;;;;;;;;;;;;13.38;82.94;98560.30;68409;1279;1015673;-70
2024/02/27 07:42:26;;;;;;;;;;;;;;;13.57;82.13;98567.48;68438;1279;1016030;-68
2024/02/27 07:45:30;;;;;;;;;;;;;;;13.63;81.86;98570.84;68430;1279;1016203;-70
2024/02/27 07:48:33;;;;;;;;;;;;;;;13.67;81.73;98572.50;68426;1279;1015577;-70
2024/02/27 07:51:36;;;;;;;;;;;;;;;13.69;82.17;98573.73;68423;1279;1015329;-68
2024/02/27 07:54:38;;;;;;;;;;;;;;;13.76;81.69;98577.77;68421;1279;1015942;-69
2024/02/27 07:57:41;;;;;;;;;;;;;;;13.83;81.38;98574.23;68434;1279;1015111;-70
2024/02/27 08:00:43;;;;;;;;;;;;;;;13.68;81.95;98566.41;68433;1279;1016086;-69
2024/02/27 08:03:46;;;;;;;;;;;;;;;13.68;81.83;98569.58;65851;1279;6363094;-69
2024/02/27 08:06:48;;;;;;;;;;;;;;;13.76;82.51;98583.90;68417;1279;1015746;-70
2024/02/27 08:09:51;;;;;;;;;;;;;;;13.91;81.68;98573.64;68434;1279;1016139;-70
2024/02/27 08:12:54;;;;;;;;;;;;;;;14.02;81.17;98569.88;68412;1279;1015566;-70
2024/02/27 08:15:57;;;;;;;;;;;;;;;14.07;81.19;98572.39;68409;1280;1015692;-70
2024/02/27 08:19:04;;;;;;;;;;;;;;;14.23;80.25;98567.36;68449;1279;1015280;-70
2024/02/27 08:22:06;;;;;;;;;;;;;;;14.19;80.46;98570.52;68413;1279;1015593;-70
2024/02/27 08:25:09;;;;;;;;;;;;;;;14.15;81.38;98565.55;68434;1279;1016609;-70
2024/02/27 08:28:12;;;;;;;;;;;;;;;14.05;81.61;98559.83;68427;1279;1016494;-69
2024/02/27 08:31:23;;;;;;;;;;;;;;;13.99;82.63;98564.73;68384;1279;1015736;-69
2024/02/27 08:34:26;;;;;;;;;;;;;;;14.09;83.54;98568.55;68410;1279;1016176;-70
2024/02/27 08:37:30;;;;;;;;;;;;;;;14.23;82.99;98562.82;68428;1279;1015716;-70
2024/02/27 08:40:32;;;;;;;;;;;;;;;14.34;83.12;98566.33;68442;1280;1015735;-70
2024/02/27 08:43:35;;;;;;;;;;;;;;;14.45;82.25;98569.55;68417;1279;1015987;-70
2024/02/27 08:46:39;;;;;;;;;;;;;;;14.55;82.08;98570.45;68452;1279;1015577;-70
2024/02/27 08:49:41;;;;;;;;;;;;;;;14.57;81.89;98576.83;63859;1279;2003132;-70
2024/02/27 08:52:45;;;;;;;;;;;;;;;14.68;81.76;98587.89;50217;1279;2015826;-70
2024/02/27 08:55:48;;;;;;;;;;;;;;;14.71;81.32;98586.08;50165;1279;2015655;-69
2024/02/27 08:58:50;;;;;;;;;;;;;;;14.84;81.88;98593.65;50917;1279;2014922;-70
2024/02/27 09:01:54;;;;;;;;;;;;;;;15.05;80.92;98588.05;50255;1279;2015248;-69
2024/02/27 09:04:58;;;;;;;;;;;;;;;15.32;80.11;98581.23;51009;1279;2016130;-69
2024/02/27 09:08:01;;;;;;;;;;;;;;;15.66;79.62;98590.11;51016;1279;2015669;-69
2024/02/27 09:11:04;;;;;;;;;;;;;;;15.93;78.86;98581.73;50163;1279;2014246;-70
2024/02/27 09:14:08;;;;;;;;;;;;;;;16.21;77.80;98591.61;52418;1279;2006300;-70
2024/02/27 09:17:10;;;;;;;;;;;;;;;16.39;76.35;98582.96;51018;1279;2006721;-70
2024/02/27 09:20:13;;;;;;;;;;;;;;;16.67;74.99;98582.95;53207;1279;2006320;-69
2024/02/27 09:23:17;;;;;;;;;;;;;;;17.07;74.49;98590.52;51781;1279;2007171;-69
2024/02/27 09:26:20;;;;;;;;;;;;;;;17.33;73.83;98583.84;52422;1279;2006066;-69
2024/02/27 09:29:22;;;;;;;;;;;;;;;17.65;73.58;98577.02;50243;1279;2015919;-70
2024/02/27 09:32:25;;;;;;;;;;;;;;;18.06;71.80;98574.38;52546;1279;2015488;-69
2024/02/27 09:35:29;;;;;;;;;;;;;;;18.28;70.69;98574.99;51012;1279;2014489;-69
2024/02/27 09:38:31;;;;;;;;;;;;;;;18.32;70.53;98570.98;52444;1279;2006715;-70
2024/02/27 09:41:34;;;;;;;;;;;;;;;18.42;69.71;98562.06;50146;1279;2015897;-69
2024/02/27 09:44:37;;;;;;;;;;;;;;;18.58;69.40;98564.27;48734;1280;2015378;-69
2024/02/27 09:47:45;;;;;;;;;;;;;;;18.74;68.49;98555.97;50236;1279;2015264;-70
2024/02/27 09:50:49;;;;;;;;;;;;;;;18.88;68.40;98548.76;51022;1279;2015945;-69
2024/02/27 09:53:51;;;;;;;;;;;;;;;19.08;67.56;98546.01;50925;1280;2015260;-69
2024/02/27 09:56:54;;;;;;;;;;;;;;;19.16;66.89;98547.23;49480;1279;2016005;-70
2024/02/27 09:59:57;;;;;;;;;;;;;;;19.32;66.95;98541.65;49497;1280;2015838;-69
2024/02/27 10:02:59;;;;;;;;;;;;;;;19.61;66.93;98543.45;64741;1279;2015771;-68
2024/02/27 10:06:02;;;;;;;;;;;;;;;19.91;65.98;98543.98;68446;1279;1015569;-69
2024/02/27 10:09:04;;;;;;;;;;;;;;;20.26;65.21;98543.34;68436;1279;1016331;-69
2024/02/27 10:12:07;;;;;;;;;;;;;;;20.57;64.34;98541.67;68421;1279;1015625;-69
2024/02/27 10:15:09;;;;;;;;;;;;;;;20.76;63.33;98543.41;68431;1280;1015102;-69
2024/02/27 10:18:12;;;;;;;;;;;;;;;21.01;62.26;98549.81;68452;1279;1015313;-68
2024/02/27 10:21:15;;;;;;;;;;;;;;;21.16;60.43;98550.53;68438;1279;1015682;-69
2024/02/27 10:24:17;;;;;;;;;;;;;;;21.28;60.59;98550.24;68436;1279;1015868;-67
2024/02/27 10:27:20;;;;;;;;;;;;;;;21.31;59.97;98546.35;68411;1279;1016226;-69
2024/02/27 10:30:22;;;;;;;;;;;;;;;21.40;58.87;98547.60;68439;1279;1016108;-69
2024/02/27 10:33:25;;;;;;;;;;;;;;;21.53;58.90;98546.83;68433;1280;1015364;-68
2024/02/27 10:36:28;;;;;;;;;;;;;;;21.56;57.63;98547.20;68423;1279;1016209;-70
2024/02/27 10:39:30;;;;;;;;;;;;;;;21.67;56.82;98551.33;68438;1279;1015421;-69
2024/02/27 10:42:33;;;;;;;;;;;;;;;21.68;57.94;98553.69;68450;1279;1015942;-69
2024/02/27 10:45:36;;;;;;;;;;;;;;;21.85;57.87;98549.30;68421;1279;1015973;-69
2024/02/27 10:48:39;;;;;;;;;;;;;;;22.11;57.15;98551.52;68431;1279;1016204;-69
2024/02/27 10:51:42;;;;;;;;;;;;;;;22.43;55.86;98546.68;68427;1279;1015952;-69
2024/02/27 10:54:44;;;;;;;;;;;;;;;22.57;54.77;98546.35;68434;1279;1015683;-69
2024/02/27 10:57:47;;;;;;;;;;;;;;;22.70;53.69;98545.52;68427;1280;1014572;-69
2024/02/27 11:00:49;;;;;;;;;;;;;;;22.71;55.00;98553.59;68413;1279;1016100;-69
2024/02/27 11:03:52;;;;;;;;;;;;;;;22.76;54.38;98552.16;68450;1280;1015245;-67
2024/02/27 11:06:55;;;;;;;;;;;;;;;22.88;53.48;98558.95;68439;1279;1015991;-69
2024/02/27 11:09:57;;;;;;;;;;;;;;;23.00;52.77;98552.54;68429;1279;1016051;-69
2024/02/27 11:13:00;;;;;;;;;;;;;;;22.95;53.12;98556.39;68424;1280;1016131;-69
2024/02/27 11:16:02;;;;;;;;;;;;;;;22.86;53.60;98561.74;68451;1279;1015696;-69
2024/02/27 11:19:05;;;;;;;;;;;;;;;22.92;52.97;98566.55;68428;1279;1015424;-69
2024/02/27 11:22:08;;;;;;;;;;;;;;;22.89;53.16;98566.53;68430;1279;1014423;-70
2024/02/27 11:25:11;;;;;;;;;;;;;;;22.82;52.60;98570.50;68438;1279;1015544;-69
2024/02/27 11:28:15;;;;;;;;;;;;;;;22.95;51.99;98568.29;68472;1279;1015845;-69
2024/02/27 11:31:18;;;;;;;;;;;;;;;23.04;51.04;98567.33;68450;1280;1015369;-69
2024/02/27 11:34:21;;;;;;;;;;;;;;;23.05;52.31;98571.86;68440;1280;1015575;-69
2024/02/27 11:37:24;;;;;;;;;;;;;;;23.34;52.39;98570.25;68435;1279;1015937;-69
2024/02/27 11:40:27;;;;;;;;;;;;;;;23.56;50.29;98572.37;68453;1280;1014322;-68
2024/02/27 11:43:30;;;;;;;;;;;;;;;23.47;50.91;98573.45;68435;1279;1016053;-69
2024/02/27 11:46:34;;;;;;;;;;;;;;;23.34;50.37;98571.66;68443;1279;1014895;-69
2024/02/27 11:49:36;;;;;;;;;;;;;;;23.34;49.99;98572.16;68446;1280;1016119;-65
2024/02/27 11:52:39;;;;;;;;;;;;;;;23.45;49.10;98575.48;68438;1279;1016103;-69
2024/02/27 11:55:42;;;;;;;;;;;;;;;23.46;49.28;98574.52;68436;1280;1015278;-69
2024/02/27 11:58:44;;;;;;;;;;;;;;;23.49;49.09;98567.41;68426;1279;1015477;-69
2024/02/27 12:01:47;;;;;;;;;;;;;;;23.47;48.53;98562.80;68426;1280;1016424;-69
2024/02/27 12:04:51;;;;;;;;;;;;;;;23.43;48.74;98566.05;68443;1280;1016181;-70
2024/02/27 12:07:53;;;;;;;;;;;;;;;23.26;48.31;98567.23;68439;1279;1015543;-69
2024/02/27 12:10:56;;;;;;;;;;;;;;;23.06;48.96;98569.04;68433;1279;1015164;-69
2024/02/27 12:13:59;;;;;;;;;;;;;;;23.00;49.28;98571.33;68439;1279;1015234;-69
2024/02/27 12:17:02;;;;;;;;;;;;;;;23.08;49.02;98571.70;68446;1280;1015798;-69
2024/02/27 12:20:05;;;;;;;;;;;;;;;23.15;49.36;98568.52;68421;1279;1015312;-69
2024/02/27 12:23:08;;;;;;;;;;;;;;;23.15;48.30;98564.02;68426;1280;1015410;-69
2024/02/27 12:26:11;;;;;;;;;;;;;;;22.76;48.19;98568.40;68426;1280;1016151;-69
2024/02/27 12:29:13;;;;;;;;;;;;;;;22.61;48.64;98565.88;68415;1279;1015925;-69
2024/02/27 12:32:16;;;;;;;;;;;;;;;22.52;48.95;98559.21;68445;1280;1016368;-67
2024/02/27 12:35:18;;;;;;;;;;;;;;;22.55;49.61;98564.34;68440;1279;1016147;-69
2024/02/27 12:38:21;;;;;;;;;;;;;;;22.87;49.15;98557.61;68448;1279;1015605;-69
2024/02/27 12:41:24;;;;;;;;;;;;;;;23.05;49.02;98564.80;68434;1279;1015968;-69
2024/02/27 12:44:27;;;;;;;;;;;;;;;23.17;49.20;98561.09;68432;1280;1015824;-69
2024/02/27 12:47:29;;;;;;;;;;;;;;;23.18;48.56;98560.98;68425;1280;1015552;-69
2024/02/27 12:50:32;;;;;;;;;;;;;;;23.23;47.74;98560.81;68449;1280;1015951;-69
2024/02/27 12:53:34;;;;;;;;;;;;;;;23.16;48.28;98562.70;68432;1280;1016028;-69
2024/02/27 12:56:37;;;;;;;;;;;;;;;23.19;47.85;98557.48;68448;1280;1015423;-69
2024/02/27 12:59:41;;;;;;;;;;;;;;;23.31;48.06;98551.30;68435;1280;1015286;-69
2024/02/27 13:02:43;;;;;;;;;;;;;;;23.67;48.24;98556.47;68430;1279;1015959;-69
2024/02/27 13:05:46;;;;;;;;;;;;;;;23.81;47.91;98550.52;68434;1279;1014867;-69
2024/02/27 13:08:49;;;;;;;;;;;;;;;23.96;46.97;98544.06;68444;1280;1016180;-69
2024/02/27 13:11:51;;;;;;;;;;;;;;;23.83;46.85;98545.64;68431;1280;1015757;-66
2024/02/27 13:14:54;;;;;;;;;;;;;;;23.78;46.74;98543.56;68417;1280;1015508;-68
2024/02/27 13:17:56;;;;;;;;;;;;;;;23.72;47.50;98543.35;68431;1280;1015896;-68
2024/02/27 13:21:00;;;;;;;;;;;;;;;23.96;47.31;98537.31;68440;1280;1015310;-69
2024/02/27 13:24:04;;;;;;;;;;;;;;;24.02;46.30;98536.15;68430;1280;1015777;-64
2024/02/27 13:27:07;;;;;;;;;;;;;;;24.13;46.62;98535.46;68415;1280;1015386;-69
2024/02/27 13:30:09;;;;;;;;;;;;;;;24.24;46.18;98533.20;68443;1280;1016276;-69
2024/02/27 13:33:12;;;;;;;;;;;;;;;24.25;45.88;98534.71;68419;1280;1015600;-69
2024/02/27 13:36:15;;;;;;;;;;;;;;;24.20;45.40;98531.73;68409;1279;1016120;-69
2024/02/27 13:39:18;;;;;;;;;;;;;;;24.24;45.57;98528.59;68405;1279;1015607;-64
2024/02/27 13:42:22;;;;;;;;;;;;;;;24.30;44.67;98526.70;68423;1279;1016536;-68
2024/02/27 13:45:24;;;;;;;;;;;;;;;24.23;44.20;98521.65;68414;1280;1015740;-68
2024/02/27 13:48:27;;;;;;;;;;;;;;;24.20;43.95;98533.34;68410;1280;1015914;-69
2024/02/27 13:51:29;;;;;;;;;;;;;;;24.26;43.85;98531.02;68418;1279;1016072;-69
2024/02/27 13:54:32;;;;;;;;;;;;;;;24.17;43.43;98528.33;68442;1280;1015773;-69
2024/02/27 13:57:35;;;;;;;;;;;;;;;24.20;43.88;98532.58;68428;1279;1015469;-69
2024/02/27 14:00:37;;;;;;;;;;;;;;;24.30;43.40;98533.05;68432;1280;1015025;-67
2024/02/27 14:03:40;;;;;;;;;;;;;;;24.17;43.12;98533.69;68424;1280;1015891;-65
2024/02/27 14:06:43;;;;;;;;;;;;;;;24.00;43.56;98533.23;68410;1280;1015236;-69
2024/02/27 14:09:45;;;;;;;;;;;;;;;23.95;43.85;98534.63;68416;1280;1015630;-69
2024/02/27 14:12:48;;;;;;;;;;;;;;;24.07;43.41;98533.33;68423;1280;1015864;-69
2024/02/27 14:15:51;;;;;;;;;;;;;;;23.91;43.35;98529.70;68423;1280;1015812;-69
2024/02/27 14:18:53;;;;;;;;;;;;;;;23.74;43.58;98533.29;68431;1280;1016100;-68
2024/02/27 14:21:56;;;;;;;;;;;;;;;23.66;43.44;98532.61;68413;1280;1015937;-66
2024/02/27 14:24:59;;;;;;;;;;;;;;;23.51;43.64;98531.42;68422;1280;1015803;-68
2024/02/27 14:28:02;;;;;;;;;;;;;;;23.63;43.63;98533.92;68427;1280;1015747;-69
2024/02/27 14:31:04;;;;;;;;;;;;;;;23.76;43.77;98534.48;68429;1279;1015973;-68
2024/02/27 14:34:08;;;;;;;;;;;;;;;23.75;43.63;98534.05;68437;1280;1015614;-70
2024/02/27 14:37:11;;;;;;;;;;;;;;;23.75;43.61;98538.75;68418;1280;1015062;-69
2024/02/27 14:40:14;;;;;;;;;;;;;;;23.74;43.52;98540.82;68418;1280;1015549;-69
2024/02/27 14:43:16;;;;;;;;;;;;;;;23.68;43.62;98539.89;68423;1280;1015955;-69
2024/02/27 14:46:19;;;;;;;;;;;;;;;23.56;43.50;98541.52;68430;1280;1015840;-69
2024/02/27 14:49:22;;;;;;;;;;;;;;;23.32;43.14;98541.38;68410;1280;1016067;-69
2024/02/27 14:52:24;;;;;;;;;;;;;;;23.17;43.73;98542.23;68424;1280;1015416;-69
2024/02/27 14:55:27;;;;;;;;;;;;;;;23.26;43.62;98540.91;68422;1280;1016084;-70
2024/02/27 14:58:30;;;;;;;;;;;;;;;23.29;43.85;98546.70;68426;1280;1015465;-69
2024/02/27 15:01:32;;;;;;;;;;;;;;;23.19;43.99;98546.83;68424;1279;1015282;-70
2024/02/27 15:04:35;;;;;;;;;;;;;;;23.05;43.98;98547.79;68423;1280;1015581;-70
2024/02/27 15:07:38;;;;;;;;;;;;;;;23.03;43.91;98549.91;68419;1280;1015337;-70
2024/02/27 15:10:41;;;;;;;;;;;;;;;22.79;44.27;98555.14;68422;1280;1015639;-69
2024/02/27 15:13:44;;;;;;;;;;;;;;;22.65;44.61;98552.88;68441;1280;1015808;-69
2024/02/27 15:16:47;;;;;;;;;;;;;;;22.42;44.68;98562.67;68418;1280;1015774;-69
2024/02/27 15:19:49;;;;;;;;;;;;;;;22.30;44.81;98562.23;68428;1280;1016329;-70
2024/02/27 15:22:52;;;;;;;;;;;;;;;22.32;44.85;98564.89;68418;1280;1015941;-69
2024/02/27 15:25:55;;;;;;;;;;;;;;;22.21;45.03;98563.26;68421;1279;1016260;-70
2024/02/27 15:28:58;;;;;;;;;;;;;;;22.18;45.02;98564.08;68427;1280;1014984;-69